Time;durP1;ratioP1;P1;durP2;ratioP2;P2;SDS_P1;SDS_P2;PMS_P1;PMS_P2;Temp;Humidity;BMP_temperature;BMP_pressure;BME280_temperature;BME280_humidity;BME280_pressure;Samples;Min_cycle;Max_cycle;Signal;HPM_P1;HPM_P2
2022/03/15 00:01:12;;;;;;;48.80;11.15;;;;;;;2.86;100.00;99232.56;5000565;28;20100;-53
2022/03/15 00:03:38;;;;;;;35.47;9.85;;;;;;;2.89;100.00;99221.44;4997297;28;20065;-55
2022/03/15 00:06:03;;;;;;;38.47;9.93;;;;;;;2.87;100.00;99223.16;5000884;28;20859;-55
2022/03/15 00:08:30;;;;;;;42.25;10.55;;;;;;;2.86;100.00;99219.69;5001621;28;20616;-53
2022/03/15 00:10:58;;;;;;;40.75;10.38;;;;;;;2.97;100.00;99226.66;5005731;28;20157;-54
2022/03/15 00:13:30;;;;;;;47.72;10.13;;;;;;;2.96;100.00;99224.91;5003586;28;20029;-53
2022/03/15 00:16:01;;;;;;;41.35;10.02;;;;;;;2.94;100.00;99231.78;4999643;28;20080;-53
2022/03/15 00:18:30;;;;;;;50.88;10.63;;;;;;;3.00;100.00;99232.72;4999825;28;20116;-54
2022/03/15 00:20:58;;;;;;;31.85;9.02;;;;;;;2.83;100.00;99237.72;4998818;28;20067;-54
2022/03/15 00:23:24;;;;;;;37.30;9.52;;;;;;;2.83;100.00;99239.41;5003273;28;20167;-54
2022/03/15 00:25:51;;;;;;;45.38;10.13;;;;;;;2.86;100.00;99235.16;5000450;28;20113;-54
2022/03/15 00:28:16;;;;;;;42.10;9.57;;;;;;;3.01;100.00;99226.69;4998967;28;20057;-54
2022/03/15 00:30:42;;;;;;;47.60;9.98;;;;;;;2.89;100.00;99218.88;5000565;28;20080;-53
2022/03/15 00:33:08;;;;;;;40.40;9.38;;;;;;;2.65;100.00;99204.03;5000181;28;20041;-54
2022/03/15 00:35:33;;;;;;;48.15;10.27;;;;;;;2.68;100.00;99206.63;4999476;28;20025;-54
2022/03/15 00:37:59;;;;;;;38.58;9.40;;;;;;;2.86;100.00;99209.38;5001219;28;20518;-55
2022/03/15 00:40:25;;;;;;;37.97;9.38;;;;;;;2.64;100.00;99207.44;5002057;28;20485;-53
2022/03/15 00:42:52;;;;;;;36.58;9.02;;;;;;;2.65;100.00;99209.19;4999250;28;20026;-54
2022/03/15 00:45:25;;;;;;;31.08;8.23;;;;;;;2.76;100.00;99207.56;5000534;28;20052;-54
2022/03/15 00:47:52;;;;;;;38.40;8.90;;;;;;;3.05;100.00;99204.38;4997664;28;20862;-54
2022/03/15 00:50:17;;;;;;;29.70;8.30;;;;;;;2.95;100.00;99200.00;4998383;28;21104;-52
2022/03/15 00:52:44;;;;;;;40.33;9.50;;;;;;;2.63;100.00;99205.72;5000394;28;20030;-53
2022/03/15 00:55:09;;;;;;;30.17;8.93;;;;;;;2.70;100.00;99198.06;4999766;28;20028;-53
2022/03/15 00:57:35;;;;;;;34.75;8.55;;;;;;;2.63;100.00;99200.59;4998932;28;20030;-54
2022/03/15 01:00:00;;;;;;;37.35;8.73;;;;;;;2.44;100.00;99190.06;4998615;28;20049;-54
2022/03/15 01:02:26;;;;;;;33.58;9.18;;;;;;;2.64;100.00;99181.69;5003696;28;20497;-54
2022/03/15 01:04:51;;;;;;;41.13;9.70;;;;;;;2.58;100.00;99176.47;5004604;28;20088;-55
2022/03/15 01:07:16;;;;;;;39.58;9.68;;;;;;;2.28;100.00;99173.59;5001500;28;20760;-56
2022/03/15 01:09:42;;;;;;;36.05;8.88;;;;;;;2.31;100.00;99172.75;5007652;28;20022;-55
2022/03/15 01:12:08;;;;;;;40.80;9.35;;;;;;;2.43;100.00;99170.31;5001735;28;20042;-55
2022/03/15 01:14:34;;;;;;;35.78;9.15;;;;;;;2.49;100.00;99167.78;5006131;28;20036;-56
2022/03/15 01:17:00;;;;;;;38.30;9.38;;;;;;;2.40;100.00;99172.84;5001856;28;20072;-55
2022/03/15 01:19:25;;;;;;;30.88;8.23;;;;;;;2.41;100.00;99171.13;5006428;28;20576;-56
2022/03/15 01:21:51;;;;;;;31.50;8.23;;;;;;;2.34;100.00;99171.94;5004010;28;20041;-54
2022/03/15 01:24:17;;;;;;;40.97;9.20;;;;;;;2.46;100.00;99166.91;5004631;28;20053;-56
2022/03/15 01:26:42;;;;;;;38.17;8.95;;;;;;;2.46;100.00;99175.50;5001736;28;20029;-55
2022/03/15 01:29:07;;;;;;;42.45;8.82;;;;;;;2.61;100.00;99174.81;5006171;28;20032;-53
2022/03/15 01:31:34;;;;;;;35.17;7.88;;;;;;;2.69;100.00;99167.13;5000168;28;20032;-54
2022/03/15 01:33:59;;;;;;;41.95;9.35;;;;;;;2.63;100.00;99169.66;5005552;28;20559;-54
2022/03/15 01:36:25;;;;;;;36.85;8.55;;;;;;;2.58;100.00;99161.03;5004132;28;20044;-55
2022/03/15 01:38:52;;;;;;;31.25;8.25;;;;;;;2.37;100.00;99162.53;5003777;28;20690;-54
2022/03/15 01:41:18;;;;;;;39.03;8.55;;;;;;;2.39;100.00;99155.69;5004470;28;20057;-56
2022/03/15 01:43:46;;;;;;;32.05;8.68;;;;;;;2.37;100.00;99157.41;5005071;28;20022;-55
2022/03/15 01:46:11;;;;;;;38.40;8.90;;;;;;;2.36;100.00;99155.66;5003362;28;20025;-54
2022/03/15 01:48:36;;;;;;;35.72;8.88;;;;;;;2.59;100.00;99152.44;5006189;28;20120;-55
2022/03/15 01:51:02;;;;;;;34.97;8.27;;;;;;;2.64;100.00;99161.06;5001796;28;20145;-55
2022/03/15 01:53:28;;;;;;;43.08;9.27;;;;;;;2.84;100.00;99159.53;5004350;28;20077;-55
2022/03/15 01:55:54;;;;;;;38.08;9.48;;;;;;;2.82;100.00;99160.38;5002193;28;20033;-54
2022/03/15 01:58:20;;;;;;;33.90;8.32;;;;;;;2.78;100.00;99156.91;5002458;28;20112;-54
2022/03/15 02:00:45;;;;;;;38.05;9.45;;;;;;;2.66;100.00;99154.22;5002344;28;20026;-55
2022/03/15 02:03:11;;;;;;;33.10;8.43;;;;;;;2.67;100.00;99149.09;5001345;28;20089;-54
2022/03/15 02:05:36;;;;;;;32.25;7.93;;;;;;;2.67;100.00;99148.22;5000811;28;20027;-54
2022/03/15 02:08:10;;;;;;;31.80;8.48;;;;;;;2.61;100.00;99136.16;5000608;28;20044;-56
2022/03/15 02:10:35;;;;;;;40.40;8.75;;;;;;;2.93;100.00;99139.88;5005354;28;20072;-54
2022/03/15 02:13:00;;;;;;;33.22;8.55;;;;;;;2.99;100.00;99137.31;5004621;28;20057;-55
2022/03/15 02:15:26;;;;;;;38.60;8.75;;;;;;;2.72;100.00;99141.41;5003382;28;20017;-55
2022/03/15 02:17:51;;;;;;;39.63;8.85;;;;;;;2.60;100.00;99147.31;5003169;28;20846;-55
2022/03/15 02:20:16;;;;;;;36.50;8.85;;;;;;;2.66;100.00;99144.78;5004893;28;20693;-54
2022/03/15 02:22:42;;;;;;;40.00;8.50;;;;;;;2.73;100.00;99139.69;5007546;28;20024;-55
2022/03/15 02:25:07;;;;;;;35.72;9.05;;;;;;;2.74;100.00;99128.53;5002298;28;20030;-55
2022/03/15 02:27:32;;;;;;;35.30;8.68;;;;;;;2.74;100.00;99123.38;5004687;28;20219;-54
2022/03/15 02:29:58;;;;;;;34.65;8.18;;;;;;;2.68;100.00;99126.75;5004726;28;20030;-56
2022/03/15 02:32:24;;;;;;;33.70;8.18;;;;;;;2.83;100.00;99126.91;5005972;28;20068;-54
2022/03/15 02:34:49;;;;;;;44.75;9.85;;;;;;;2.82;100.00;99112.28;5004094;28;20488;-55
2022/03/15 02:37:14;;;;;;;31.85;8.00;;;;;;;2.89;100.00;99119.22;5000372;28;20388;-55
2022/03/15 02:39:40;;;;;;;42.20;8.68;;;;;;;2.94;100.00;99123.53;5005270;28;20491;-55
2022/03/15 02:42:05;;;;;;;32.40;8.90;;;;;;;3.02;100.00;99121.88;5005835;28;20038;-55
2022/03/15 02:44:31;;;;;;;43.58;9.02;;;;;;;2.69;100.00;99116.47;5002237;28;20022;-55
2022/03/15 02:46:56;;;;;;;29.98;7.88;;;;;;;2.49;100.00;99113.72;5000414;28;20087;-54
2022/03/15 02:49:21;;;;;;;30.23;7.68;;;;;;;2.25;100.00;99108.34;5001903;28;20077;-55
2022/03/15 02:51:47;;;;;;;38.38;8.15;;;;;;;2.37;100.00;99103.31;5003799;28;20128;-56
2022/03/15 02:54:13;;;;;;;37.45;8.25;;;;;;;2.55;100.00;99110.31;5003450;28;20079;-55
2022/03/15 02:56:42;;;;;;;35.50;8.65;;;;;;;2.45;100.00;99114.53;4997154;28;20034;-55
2022/03/15 02:59:07;;;;;;;36.42;8.02;;;;;;;2.53;100.00;99122.34;4998965;28;20124;-55
2022/03/15 03:01:34;;;;;;;34.15;8.02;;;;;;;2.54;100.00;99118.03;5002176;28;20132;-55
2022/03/15 03:03:59;;;;;;;35.22;7.65;;;;;;;2.58;100.00;99119.81;5004233;28;20029;-53
2022/03/15 03:06:25;;;;;;;44.63;8.70;;;;;;;2.79;100.00;99119.97;5002164;28;20033;-52
2022/03/15 03:08:50;;;;;;;36.78;8.35;;;;;;;2.63;100.00;99113.00;5001399;28;20061;-55
2022/03/15 03:11:16;;;;;;;36.42;8.45;;;;;;;3.03;100.00;99115.88;5000847;28;20052;-54
2022/03/15 03:13:42;;;;;;;25.23;7.15;;;;;;;2.74;100.00;99119.09;5003881;28;20139;-55
2022/03/15 03:16:08;;;;;;;39.03;8.30;;;;;;;3.02;100.00;99114.16;5002731;28;20026;-52
2022/03/15 03:18:34;;;;;;;37.92;8.23;;;;;;;2.90;100.00;99114.91;5003659;28;20758;-53
2022/03/15 03:21:05;;;;;;;41.55;8.82;;;;;;;2.75;100.00;99112.22;4999541;28;20133;-53
2022/03/15 03:23:33;;;;;;;34.97;8.48;;;;;;;2.82;100.00;99114.84;5001480;28;20025;-53
2022/03/15 03:25:59;;;;;;;27.55;7.63;;;;;;;2.55;100.00;99110.31;5001287;28;20861;-53
2022/03/15 03:28:25;;;;;;;39.10;8.27;;;;;;;2.74;100.00;99108.78;5001403;28;20428;-52
2022/03/15 03:30:51;;;;;;;30.75;8.02;;;;;;;2.84;100.00;99105.41;4998767;28;20025;-53
2022/03/15 03:33:19;;;;;;;35.20;8.55;;;;;;;3.18;100.00;99103.09;5003749;28;20111;-52
2022/03/15 03:35:44;;;;;;;35.20;7.88;;;;;;;3.16;100.00;99104.81;5000768;28;20029;-52
2022/03/15 03:38:11;;;;;;;45.63;8.52;;;;;;;3.04;100.00;99104.72;5004954;28;20460;-56
2022/03/15 03:40:37;;;;;;;35.45;8.30;;;;;;;3.24;100.00;99091.97;5002723;28;20034;-53
2022/03/15 03:43:02;;;;;;;29.77;8.05;;;;;;;3.14;100.00;99096.16;5001854;28;20021;-53
2022/03/15 03:45:28;;;;;;;40.45;8.40;;;;;;;3.09;100.00;99092.72;5003702;28;20603;-56
2022/03/15 03:47:53;;;;;;;32.88;8.40;;;;;;;2.78;100.00;99092.50;5001230;28;20040;-53
2022/03/15 03:50:19;;;;;;;36.92;8.10;;;;;;;3.05;100.00;99090.97;5002241;28;20065;-53
2022/03/15 03:52:44;;;;;;;42.72;8.90;;;;;;;3.09;100.00;99085.84;5004340;28;20026;-54
2022/03/15 03:55:10;;;;;;;34.80;8.52;;;;;;;3.26;100.00;99085.94;4998268;28;20030;-53
2022/03/15 03:57:35;;;;;;;34.20;8.00;;;;;;;3.34;100.00;99079.97;5000853;28;20124;-54
2022/03/15 04:00:01;;;;;;;37.83;8.98;;;;;;;3.39;100.00;99086.03;4999763;28;20585;-53
2022/03/15 04:02:26;;;;;;;41.30;8.98;;;;;;;3.15;100.00;99082.44;5000150;28;20033;-53
2022/03/15 04:04:55;;;;;;;47.80;9.68;;;;;;;3.24;100.00;99077.34;5000642;28;20105;-52
2022/03/15 04:07:21;;;;;;;32.20;7.55;;;;;;;3.22;100.00;99078.19;5001407;28;20041;-53
2022/03/15 04:09:47;;;;;;;33.38;8.00;;;;;;;3.39;100.00;99073.97;5001722;28;20018;-52
2022/03/15 04:12:12;;;;;;;42.22;8.95;;;;;;;3.71;100.00;99072.41;5006891;28;20112;-53
2022/03/15 04:14:37;;;;;;;32.83;7.80;;;;;;;3.46;100.00;99073.16;5001775;28;20034;-53
2022/03/15 04:17:03;;;;;;;36.85;8.45;;;;;;;3.36;100.00;99070.53;4998745;28;20025;-54
2022/03/15 04:19:30;;;;;;;31.27;8.35;;;;;;;3.36;100.00;99075.69;4998748;28;20121;-53
2022/03/15 04:21:55;;;;;;;34.35;8.55;;;;;;;3.30;100.00;99075.66;5001837;28;20036;-54
2022/03/15 04:24:21;;;;;;;35.58;8.18;;;;;;;3.27;100.00;99072.22;5002775;28;20037;-53
2022/03/15 04:26:47;;;;;;;45.60;9.20;;;;;;;3.27;100.00;99076.47;5003029;28;20029;-53
2022/03/15 04:29:13;;;;;;;37.45;9.30;;;;;;;3.33;100.00;99080.81;5001389;28;20109;-53
2022/03/15 04:31:38;;;;;;;39.40;9.18;;;;;;;3.26;100.00;99080.78;5003012;28;20034;-53
2022/03/15 04:34:04;;;;;;;32.58;8.27;;;;;;;3.28;100.00;99080.78;4997523;28;20029;-53
2022/03/15 04:36:30;;;;;;;30.00;8.65;;;;;;;3.23;100.00;99075.59;5000248;28;20459;-53
2022/03/15 04:38:55;;;;;;;38.17;9.15;;;;;;;3.32;100.00;99069.63;5006810;28;20132;-53
2022/03/15 04:41:21;;;;;;;40.30;9.35;;;;;;;3.46;100.00;99073.16;5007336;28;20087;-53
2022/03/15 04:43:46;;;;;;;40.30;9.85;;;;;;;3.47;100.00;99069.72;5005214;28;20094;-52
2022/03/15 04:46:11;;;;;;;29.40;8.80;;;;;;;3.47;100.00;99063.69;5002352;28;20026;-52
2022/03/15 04:48:37;;;;;;;42.55;9.75;;;;;;;3.38;100.00;99063.66;5003670;28;20022;-54
2022/03/15 04:51:02;;;;;;;38.55;9.57;;;;;;;3.44;100.00;99059.41;5004446;28;20034;-54
2022/03/15 04:53:28;;;;;;;36.13;9.25;;;;;;;3.89;100.00;99062.13;5004687;28;20087;-53
2022/03/15 04:55:53;;;;;;;41.70;10.02;;;;;;;3.70;100.00;99058.63;5003023;28;20075;-53
2022/03/15 04:58:19;;;;;;;40.47;9.80;;;;;;;3.74;100.00;99051.78;5006026;28;20104;-53
2022/03/15 05:00:44;;;;;;;33.58;9.55;;;;;;;3.63;100.00;99050.00;5005305;28;20103;-54
2022/03/15 05:03:10;;;;;;;44.45;9.57;;;;;;;3.35;100.00;99043.03;5006140;28;20818;-53
2022/03/15 05:05:35;;;;;;;38.85;9.35;;;;;;;3.10;100.00;99045.44;5004841;28;20062;-52
2022/03/15 05:08:00;;;;;;;42.13;9.88;;;;;;;3.27;100.00;99036.09;4999750;28;20056;-54
2022/03/15 05:13:11;;;;;;;33.53;9.15;;;;;;;3.41;100.00;99032.72;5009622;28;20716;-54
2022/03/15 05:15:37;;;;;;;37.67;10.18;;;;;;;3.48;100.00;99034.47;5006608;28;20025;-53
2022/03/15 05:18:02;;;;;;;43.63;9.57;;;;;;;3.62;100.00;99032.81;5005971;28;20041;-53
2022/03/15 05:20:29;;;;;;;39.10;9.40;;;;;;;3.69;100.00;99035.41;5006191;28;20048;-54
2022/03/15 05:22:55;;;;;;;32.75;9.05;;;;;;;3.63;100.00;99026.78;5003858;28;20033;-53
2022/03/15 05:25:20;;;;;;;39.28;8.65;;;;;;;4.00;100.00;99028.59;5006028;28;20030;-53
2022/03/15 05:27:46;;;;;;;33.42;9.20;;;;;;;3.75;100.00;99025.09;5004817;28;20618;-54
2022/03/15 05:30:12;;;;;;;38.42;9.55;;;;;;;3.72;100.00;99027.69;5003747;28;20547;-54
2022/03/15 05:32:37;;;;;;;35.17;9.30;;;;;;;3.41;100.00;99020.69;5007633;28;20053;-53
2022/03/15 05:35:03;;;;;;;45.70;10.38;;;;;;;3.52;100.00;99023.31;5000443;28;20752;-55
2022/03/15 05:37:29;;;;;;;35.58;9.90;;;;;;;3.74;100.00;99020.81;5006609;28;20029;-54
2022/03/15 05:39:54;;;;;;;31.08;9.20;;;;;;;3.90;100.00;99017.41;5005772;28;20036;-53
2022/03/15 05:42:20;;;;;;;34.72;9.52;;;;;;;4.01;100.00;99015.69;5003483;28;20037;-52
2022/03/15 05:44:46;;;;;;;42.20;10.88;;;;;;;4.02;100.00;99014.81;5003941;28;20030;-53
2022/03/15 05:47:11;;;;;;;40.10;10.00;;;;;;;3.96;100.00;99012.25;5002814;28;20029;-55
2022/03/15 05:49:37;;;;;;;39.33;10.15;;;;;;;4.11;100.00;99011.41;5007712;28;20022;-53
2022/03/15 05:52:03;;;;;;;37.50;9.73;;;;;;;4.10;100.00;99008.81;5012493;28;20028;-53
2022/03/15 05:54:29;;;;;;;34.60;8.95;;;;;;;3.97;100.00;99008.81;5008651;28;20064;-53
2022/03/15 05:56:55;;;;;;;38.35;9.35;;;;;;;4.02;100.00;99011.38;5004538;28;20034;-52
2022/03/15 05:59:20;;;;;;;42.60;9.90;;;;;;;3.88;100.00;99013.97;5003207;28;20037;-54
2022/03/15 06:01:45;;;;;;;33.15;9.10;;;;;;;4.16;100.00;99012.28;5007352;28;20116;-53
2022/03/15 06:04:11;;;;;;;33.22;8.98;;;;;;;3.96;100.00;99012.25;5002285;28;20076;-54
2022/03/15 06:06:37;;;;;;;37.53;9.10;;;;;;;4.00;100.00;99006.22;5004401;28;20034;-54
2022/03/15 06:09:03;;;;;;;34.17;8.70;;;;;;;4.26;100.00;99007.97;5005933;28;20022;-54
2022/03/15 06:11:31;;;;;;;33.17;8.60;;;;;;;4.31;100.00;99011.41;5004103;28;20037;-54
2022/03/15 06:13:57;;;;;;;40.65;9.85;;;;;;;4.30;100.00;99007.13;5001272;28;20040;-53
2022/03/15 06:16:22;;;;;;;30.25;8.50;;;;;;;4.53;100.00;99008.84;5006250;28;20038;-53
2022/03/15 06:18:47;;;;;;;37.25;9.10;;;;;;;4.74;100.00;99003.66;5003428;28;20389;-54
2022/03/15 06:21:12;;;;;;;32.85;8.85;;;;;;;4.75;100.00;99007.94;5007207;28;20033;-53
2022/03/15 06:23:38;;;;;;;33.72;8.57;;;;;;;4.60;100.00;99011.41;4999753;28;20120;-52
2022/03/15 06:26:03;;;;;;;34.55;8.60;;;;;;;4.79;100.00;99017.41;4996524;28;20034;-53
2022/03/15 06:28:29;;;;;;;41.78;8.75;;;;;;;4.76;100.00;99012.28;5001782;28;20028;-53
2022/03/15 06:30:57;;;;;;;36.97;8.63;;;;;;;5.20;100.00;99002.66;4999226;28;20113;-54
2022/03/15 06:33:23;;;;;;;33.97;8.55;;;;;;;5.03;100.00;99015.66;5001616;28;20034;-52
2022/03/15 06:35:48;;;;;;;33.28;8.75;;;;;;;4.93;100.00;99003.63;5001030;28;20842;-52
2022/03/15 06:38:14;;;;;;;30.92;8.25;;;;;;;4.92;100.00;99002.75;5002229;28;20030;-54
2022/03/15 06:40:41;;;;;;;32.25;8.43;;;;;;;5.11;100.00;99001.00;5003578;28;20029;-53
2022/03/15 06:43:09;;;;;;;31.92;8.30;;;;;;;4.95;100.00;99001.91;5006861;28;20463;-53
2022/03/15 06:45:35;;;;;;;42.08;8.80;;;;;;;5.28;100.00;99000.09;4998545;28;20026;-53
2022/03/15 06:48:00;;;;;;;34.60;9.25;;;;;;;5.16;100.00;99000.97;5001156;28;20690;-52
2022/03/15 06:50:25;;;;;;;33.00;8.57;;;;;;;4.82;100.00;99001.91;5007155;28;21332;-52
2022/03/15 06:52:51;;;;;;;33.30;8.52;;;;;;;4.82;100.00;99004.50;5002073;28;20040;-52
2022/03/15 06:55:16;;;;;;;37.45;9.00;;;;;;;4.80;100.00;99006.22;5006863;28;20025;-54
2022/03/15 06:57:42;;;;;;;31.33;8.63;;;;;;;4.86;100.00;98994.16;5007537;28;20029;-53
2022/03/15 07:00:11;;;;;;;36.25;7.72;;;;;;;5.37;100.00;98989.69;5006170;28;20033;-52
2022/03/15 07:02:37;;;;;;;35.95;8.13;;;;;;;5.70;100.00;98987.81;5004142;28;20088;-54
2022/03/15 07:05:03;;;;;;;34.28;7.53;;;;;;;5.47;100.00;98996.53;5001353;28;20793;-52
2022/03/15 07:07:29;;;;;;;27.50;6.70;;;;;;;6.00;100.00;98988.53;5002081;28;20048;-52
2022/03/15 07:09:55;;;;;;;27.95;7.13;;;;;;;5.97;100.00;98992.84;5001333;28;20022;-54
2022/03/15 07:12:21;;;;;;;37.78;8.25;;;;;;;6.00;100.00;98991.13;5002499;28;20036;-52
2022/03/15 07:14:47;;;;;;;42.47;8.75;;;;;;;6.50;100.00;98992.44;4996642;28;20026;-53
2022/03/15 07:17:13;;;;;;;38.22;8.07;;;;;;;6.77;100.00;99003.47;5003237;28;20021;-54
2022/03/15 07:19:38;;;;;;;34.33;6.90;;;;;;;6.20;100.00;98997.00;5002594;28;20022;-53
2022/03/15 07:22:06;;;;;;;26.52;6.63;;;;;;;6.51;100.00;99002.81;5001400;28;20037;-52
2022/03/15 07:24:32;;;;;;;27.27;6.90;;;;;;;6.66;100.00;98999.22;5002903;28;20729;-52
2022/03/15 07:26:58;;;;;;;37.42;8.27;;;;;;;6.41;100.00;98982.16;5002607;28;20029;-55
2022/03/15 07:29:23;;;;;;;28.85;7.43;;;;;;;6.40;100.00;98983.06;5002190;28;20036;-52
2022/03/15 07:31:49;;;;;;;28.05;7.47;;;;;;;6.75;100.00;98983.56;4999919;28;20033;-53
2022/03/15 07:34:14;;;;;;;31.30;7.35;;;;;;;6.95;100.00;98990.31;5001598;28;20411;-53
2022/03/15 07:36:39;;;;;;;26.60;7.20;;;;;;;6.93;100.00;98990.31;5001551;28;20025;-53
2022/03/15 07:39:05;;;;;;;28.27;7.15;;;;;;;6.83;100.00;98990.41;5002806;28;20104;-53
2022/03/15 07:41:38;;;;;;;31.35;7.57;;;;;;;6.93;100.00;98992.06;5001756;28;20057;-53
2022/03/15 07:44:03;;;;;;;26.27;7.05;;;;;;;7.49;100.00;98993.13;5003167;28;20030;-52
2022/03/15 07:46:29;;;;;;;33.35;7.25;;;;;;;7.64;100.00;98986.00;5003567;28;20041;-52
2022/03/15 07:48:54;;;;;;;30.00;7.57;;;;;;;7.53;100.00;98986.16;4998314;28;20033;-57
2022/03/15 07:51:19;;;;;;;28.38;7.10;;;;;;;7.98;100.00;98990.75;5004295;28;20054;-53
2022/03/15 07:53:44;;;;;;;30.90;6.80;;;;;;;8.11;100.00;98981.88;5001264;28;20029;-53
2022/03/15 07:56:10;;;;;;;26.98;7.00;;;;;;;7.55;100.00;98975.75;4999741;28;20680;-54
2022/03/15 07:58:35;;;;;;;28.02;7.20;;;;;;;7.52;100.00;98977.50;5001658;28;20815;-53
2022/03/15 08:01:01;;;;;;;28.83;7.32;;;;;;;7.56;100.00;98982.69;5001757;28;20026;-54
2022/03/15 08:03:26;;;;;;;28.50;7.50;;;;;;;7.46;100.00;98972.41;5000329;28;20125;-52
2022/03/15 08:05:52;;;;;;;24.35;6.78;;;;;;;7.41;100.00;98981.13;5002175;28;20632;-53
2022/03/15 08:08:17;;;;;;;27.92;7.43;;;;;;;7.21;100.00;98981.38;5003305;28;20028;-52
2022/03/15 08:10:43;;;;;;;31.05;7.63;;;;;;;7.65;100.00;98977.34;5003099;28;20061;-53
2022/03/15 08:13:09;;;;;;;30.85;7.50;;;;;;;7.30;100.00;98970.88;4999350;28;20137;-52
2022/03/15 08:15:34;;;;;;;28.83;7.57;;;;;;;7.39;100.00;98969.88;5000537;28;20094;-52
2022/03/15 08:18:02;;;;;;;25.92;7.20;;;;;;;7.18;100.00;98976.22;4997474;28;20025;-52
2022/03/15 08:20:32;;;;;;;29.00;7.03;;;;;;;7.17;100.00;98966.69;5000825;28;20017;-53
2022/03/15 08:22:58;;;;;;;29.58;6.93;;;;;;;7.01;100.00;98959.09;4998779;28;20088;-53
2022/03/15 08:25:24;;;;;;;30.80;8.05;;;;;;;7.45;100.00;98959.44;5002604;28;20680;-52
2022/03/15 08:27:49;;;;;;;27.38;6.85;;;;;;;7.76;100.00;98954.69;5000533;28;20029;-51
2022/03/15 08:30:15;;;;;;;28.95;7.10;;;;;;;7.67;100.00;98955.66;5001465;28;20033;-52
2022/03/15 08:32:40;;;;;;;26.63;7.47;;;;;;;7.60;100.00;98953.19;4999516;28;20057;-52
2022/03/15 08:35:06;;;;;;;37.00;8.02;;;;;;;7.66;100.00;98951.34;5003245;28;20137;-53
2022/03/15 08:37:31;;;;;;;33.17;7.97;;;;;;;7.64;100.00;98944.47;5000175;28;20132;-52
2022/03/15 08:39:56;;;;;;;32.35;7.50;;;;;;;7.57;100.00;98954.06;5002234;28;20022;-51
2022/03/15 08:42:22;;;;;;;29.42;7.28;;;;;;;7.68;100.00;98941.81;5004403;28;20029;-53
2022/03/15 08:44:47;;;;;;;36.75;8.35;;;;;;;7.70;100.00;98939.16;5001442;28;20060;-53
2022/03/15 08:47:14;;;;;;;47.60;7.43;;;;;;;7.62;100.00;98941.03;4995801;28;20034;-52
2022/03/15 08:49:41;;;;;;;31.27;7.18;;;;;;;8.25;100.00;98942.66;4998934;28;20030;-53
2022/03/15 08:52:08;;;;;;;38.20;7.82;;;;;;;7.99;100.00;98940.50;5003363;28;20079;-53
2022/03/15 08:54:37;;;;;;;28.67;7.38;;;;;;;8.34;100.00;98934.72;4995389;28;20049;-53
2022/03/15 08:57:03;;;;;;;34.42;7.75;;;;;;;8.46;100.00;98928.50;5000258;28;20739;-53
2022/03/15 08:59:28;;;;;;;27.83;6.90;;;;;;;8.02;100.00;98925.72;5001934;28;20075;-53
2022/03/15 09:01:54;;;;;;;28.20;7.63;;;;;;;7.78;100.00;98926.09;5002202;28;20108;-52
2022/03/15 09:04:19;;;;;;;37.97;8.35;;;;;;;7.81;100.00;98921.72;5003014;28;20026;-53
2022/03/15 09:06:44;;;;;;;33.85;7.88;;;;;;;8.26;100.00;98914.06;4999307;28;20164;-53
2022/03/15 09:09:10;;;;;;;34.80;7.07;;;;;;;8.57;100.00;98913.56;5001226;28;20033;-52
2022/03/15 09:11:36;;;;;;;26.27;7.82;;;;;;;8.39;100.00;98913.84;5003326;28;20431;-53
2022/03/15 09:14:01;;;;;;;26.73;7.40;;;;;;;8.33;100.00;98913.97;4995961;28;20205;-53
2022/03/15 09:16:27;;;;;;;32.30;7.97;;;;;;;8.89;100.00;98909.47;4996503;28;20087;-53
2022/03/15 09:18:53;;;;;;;28.85;7.93;;;;;;;8.65;100.00;98903.84;4996694;28;20033;-52
2022/03/15 09:21:19;;;;;;;30.25;8.05;;;;;;;8.70;100.00;98898.56;4999508;28;20029;-52
2022/03/15 09:23:44;;;;;;;29.52;7.18;;;;;;;8.76;100.00;98903.66;5000868;28;20459;-52
2022/03/15 09:26:10;;;;;;;33.58;8.07;;;;;;;9.33;100.00;98894.69;5002327;28;20527;-52
2022/03/15 09:28:37;;;;;;;30.35;7.70;;;;;;;9.65;100.00;98895.75;5004272;28;20099;-54
2022/03/15 09:31:03;;;;;;;26.00;7.68;;;;;;;9.88;100.00;98891.72;5006022;28;20106;-54
2022/03/15 09:33:29;;;;;;;33.22;8.02;;;;;;;9.97;100.00;98887.13;5005374;28;20085;-53
2022/03/15 09:35:55;;;;;;;29.27;7.20;;;;;;;10.75;100.00;98886.91;5002220;28;20121;-53
2022/03/15 09:38:21;;;;;;;28.48;6.80;;;;;;;10.15;100.00;98879.78;5004236;28;20076;-52
2022/03/15 09:40:51;;;;;;;24.95;6.70;;;;;;;9.83;100.00;98879.69;4999394;28;20512;-54
2022/03/15 09:43:22;;;;;;;26.63;7.70;;;;;;;10.06;100.00;98875.63;5004571;28;20037;-52
2022/03/15 09:45:50;;;;;;;31.50;7.80;;;;;;;10.24;100.00;98863.91;5003019;28;20596;-52
2022/03/15 09:48:19;;;;;;;23.50;6.53;;;;;;;9.63;100.00;98858.41;5003363;28;20026;-54
2022/03/15 09:50:48;;;;;;;25.90;7.63;;;;;;;9.90;100.00;98854.31;4999375;28;20038;-53
2022/03/15 09:53:15;;;;;;;30.15;6.80;;;;;;;9.93;100.00;98849.03;5005586;28;20026;-54
2022/03/15 09:55:44;;;;;;;25.05;6.72;;;;;;;9.89;100.00;98851.72;5000588;28;20026;-54
2022/03/15 09:58:14;;;;;;;26.70;7.50;;;;;;;10.52;100.00;98851.00;5004551;28;20053;-55
2022/03/15 10:00:41;;;;;;;23.95;6.82;;;;;;;10.33;100.00;98849.78;5004017;28;20543;-54
2022/03/15 10:03:07;;;;;;;23.63;7.28;;;;;;;10.32;100.00;98855.91;5005320;28;20609;-54
2022/03/15 10:05:33;;;;;;;24.92;7.32;;;;;;;10.47;100.00;98845.06;5002611;28;20300;-54
2022/03/15 10:07:58;;;;;;;27.52;7.78;;;;;;;10.70;100.00;98846.19;5001710;28;20345;-54
2022/03/15 10:10:24;;;;;;;25.73;7.75;;;;;;;10.25;100.00;98846.50;5003843;28;20574;-54
2022/03/15 10:12:51;;;;;;;28.27;7.78;;;;;;;10.63;100.00;98844.66;5006527;28;20030;-55
2022/03/15 10:15:22;;;;;;;29.48;8.07;;;;;;;10.36;100.00;98842.72;5003073;28;20177;-54
2022/03/15 10:17:56;;;;;;;20.58;6.57;;;;;;;10.65;100.00;98837.63;5006763;28;20448;-53
2022/03/15 10:20:29;;;;;;;23.02;6.95;;;;;;;11.10;100.00;98830.22;5007436;28;20043;-52
2022/03/15 10:23:02;;;;;;;;;;;;;;;10.95;100.00;98831.53;5007749;28;20026;-53
2022/03/15 10:25:30;;;;;;;30.52;7.22;;;;;;;10.80;100.00;98821.53;5000306;28;19923;-53
2022/03/15 10:27:58;;;;;;;24.40;6.60;;;;;;;11.34;100.00;98807.72;5001831;28;20034;-53
2022/03/15 10:30:25;;;;;;;23.35;6.95;;;;;;;10.65;100.00;98808.94;5003866;28;20034;-52
2022/03/15 10:32:51;;;;;;;24.75;7.38;;;;;;;11.36;100.00;98795.47;5002752;28;20535;-53
2022/03/15 10:35:18;;;;;;;29.13;7.55;;;;;;;11.57;100.00;98790.47;4998435;28;20578;-55
2022/03/15 10:37:44;;;;;;;24.73;7.10;;;;;;;11.79;100.00;98781.94;5001910;28;20105;-54
2022/03/15 10:40:10;;;;;;;23.92;6.97;;;;;;;11.37;100.00;98776.28;5002329;28;20033;-55
2022/03/15 10:42:41;;;;;;;22.92;7.13;;;;;;;12.47;100.00;98773.47;5002550;28;20044;-55
2022/03/15 10:45:21;;;;;;;24.70;7.20;;;;;;;12.66;100.00;98751.84;5003749;28;20054;-54
2022/03/15 10:47:52;;;;;;;26.38;6.97;;;;;;;12.45;100.00;98751.72;5002294;28;20025;-55
2022/03/15 10:50:18;;;;;;;26.13;7.70;;;;;;;12.66;91.69;98759.69;5002743;28;20029;-53
2022/03/15 10:52:45;;;;;;;26.65;8.05;;;;;;;12.68;95.61;98753.50;5003978;28;20602;-55
2022/03/15 10:55:28;;;;;;;24.27;7.57;;;;;;;13.03;91.05;98748.69;5000846;28;20693;-55
2022/03/15 10:58:06;;;;;;;26.20;8.18;;;;;;;13.50;80.15;98743.31;5002856;28;20135;-55
2022/03/15 11:00:33;;;;;;;27.02;9.10;;;;;;;12.97;78.35;98740.22;5000434;28;20030;-54
2022/03/15 11:02:59;;;;;;;24.05;8.25;;;;;;;12.66;80.57;98738.75;5002671;28;20033;-55
2022/03/15 11:05:35;;;;;;;28.60;9.35;;;;;;;13.09;74.59;98742.34;5000975;28;20025;-55
2022/03/15 11:08:11;;;;;;;23.25;8.98;;;;;;;12.70;76.50;98740.34;5003407;28;20029;-54
2022/03/15 11:10:38;;;;;;;28.90;9.07;;;;;;;13.14;77.88;98724.69;5001498;28;20404;-54
2022/03/15 11:13:12;;;;;;;28.23;8.88;;;;;;;12.85;77.42;98713.59;5004192;28;20502;-55
2022/03/15 11:15:41;;;;;;;24.35;8.15;;;;;;;12.86;76.07;98704.81;4998928;28;20045;-55
2022/03/15 11:18:08;;;;;;;28.27;9.38;;;;;;;12.99;75.62;98701.72;4998678;28;20489;-55
2022/03/15 11:20:36;;;;;;;26.13;9.25;;;;;;;12.98;76.44;98697.41;5001832;28;20492;-55
2022/03/15 11:23:08;;;;;;;24.23;9.07;;;;;;;13.10;74.15;98691.66;5002153;28;20133;-53